Time;durP1;ratioP1;P1;durP2;ratioP2;P2;SDS_P1;SDS_P2;PMS_P1;PMS_P2;Temp;Humidity;BMP_temperature;BMP_pressure;BME280_temperature;BME280_humidity;BME280_pressure;Samples;Min_cycle;Max_cycle;Signal;HPM_P1;HPM_P2
2023/12/09 00:00:31;;;;;;;5.80;3.08;;;40.00;56.10;;;;;;5074072;28;20172;-73
2023/12/09 00:02:58;;;;;;;6.38;2.78;;;40.40;56.90;;;;;;5073979;28;20203;-73
2023/12/09 00:05:25;;;;;;;4.32;2.60;;;;;;;;;;5073744;28;20182;-73
2023/12/09 00:07:53;;;;;;;8.43;3.20;;;40.50;48.80;;;;;;5073810;28;20251;-73
2023/12/09 00:10:20;;;;;;;7.25;2.88;;;40.30;51.00;;;;;;5072042;28;20179;-73
2023/12/09 00:12:48;;;;;;;8.65;3.53;;;40.20;48.90;;;;;;5073715;28;20168;-75
2023/12/09 00:15:15;;;;;;;8.70;3.25;;;40.20;53.10;;;;;;5073820;28;20200;-74
2023/12/09 00:17:43;;;;;;;9.77;3.08;;;40.40;44.90;;;;;;5073490;28;20183;-73
2023/12/09 00:20:10;;;;;;;7.68;3.08;;;40.60;42.20;;;;;;5073836;28;20244;-74
2023/12/09 00:22:38;;;;;;;10.25;3.20;;;40.40;44.30;;;;;;5073678;28;20172;-72
2023/12/09 00:25:07;;;;;;;8.95;3.15;;;40.80;43.00;;;;;;5073577;28;20176;-72
2023/12/09 00:27:38;;;;;;;8.52;3.50;;;41.40;39.80;;;;;;5073590;28;20252;-72
2023/12/09 00:30:11;;;;;;;5.25;2.85;;;42.10;37.70;;;;;;5073363;28;20219;-72
2023/12/09 00:32:38;;;;;;;5.88;2.80;;;42.00;33.20;;;;;;5072128;28;20196;-72
2023/12/09 00:35:06;;;;;;;10.10;3.38;;;41.90;32.10;;;;;;5073465;28;20702;-71
2023/12/09 00:37:33;;;;;;;4.75;3.17;;;41.70;27.40;;;;;;5073589;28;20641;-72
2023/12/09 00:40:00;;;;;;;5.28;3.38;;;42.00;26.20;;;;;;5073557;28;20168;-72
2023/12/09 00:42:28;;;;;;;7.50;2.95;;;42.50;25.00;;;;;;5073759;28;20175;-72
2023/12/09 00:44:55;;;;;;;6.72;3.25;;;42.50;23.80;;;;;;5073597;28;20194;-72
2023/12/09 00:47:22;;;;;;;9.43;3.20;;;43.30;22.40;;;;;;5074087;28;20195;-71
2023/12/09 00:49:50;;;;;;;9.80;3.53;;;43.20;18.90;;;;;;5073354;28;20527;-72
2023/12/09 00:52:17;;;;;;;8.38;3.15;;;43.10;17.30;;;;;;5073178;28;20589;-72
2023/12/09 00:54:44;;;;;;;5.68;3.35;;;43.50;16.60;;;;;;5073294;28;20179;-72
2023/12/09 00:57:12;;;;;;;5.30;3.20;;;43.60;14.60;;;;;;5073540;28;20182;-72
2023/12/09 00:59:39;;;;;;;4.40;3.00;;;43.60;12.10;;;;;;5073163;28;20205;-72
2023/12/09 01:02:07;;;;;;;9.10;3.05;;;43.30;11.20;;;;;;5073339;28;20183;-73
2023/12/09 01:04:35;;;;;;;6.18;3.40;;;42.80;10.30;;;;;;5073209;28;20629;-73
2023/12/09 01:07:02;;;;;;;5.25;2.67;;;43.10;11.00;;;;;;5073235;28;20200;-73
2023/12/09 01:09:29;;;;;;;5.35;3.10;;;43.10;8.00;;;;;;5071963;28;20633;-73
2023/12/09 01:11:57;;;;;;;7.00;2.85;;;43.30;9.70;;;;;;5073248;28;20265;-71
2023/12/09 01:14:24;;;;;;;13.50;3.17;;;43.60;9.90;;;;;;5073336;28;20172;-73
2023/12/09 01:16:51;;;;;;;7.20;3.50;;;43.70;8.30;;;;;;5073032;28;20182;-73
2023/12/09 01:19:19;;;;;;;8.02;3.08;;;43.70;5.70;;;;;;5071779;28;20273;-73
2023/12/09 01:21:46;;;;;;;9.65;3.35;;;43.80;5.70;;;;;;5073979;28;20171;-73
2023/12/09 01:24:13;;;;;;;7.30;3.10;;;44.10;5.80;;;;;;5077235;28;20168;-74
2023/12/09 01:26:41;;;;;;;6.53;2.85;;;43.40;4.60;;;;;;5077149;28;20557;-72
2023/12/09 01:29:08;;;;;;;5.95;3.00;;;43.60;5.80;;;;;;5077118;28;20314;-72
2023/12/09 01:31:35;;;;;;;4.22;3.08;;;43.80;5.50;;;;;;5076983;28;20292;-72
2023/12/09 01:34:03;;;;;;;12.60;3.78;;;43.90;4.20;;;;;;5077118;28;20579;-73
2023/12/09 01:36:30;;;;;;;4.05;2.70;;;43.90;2.80;;;;;;5077111;28;20172;-71
2023/12/09 01:38:57;;;;;;;9.25;3.03;;;44.30;6.00;;;;;;5075914;28;20176;-72
2023/12/09 01:41:25;;;;;;;5.25;3.05;;;43.90;3.60;;;;;;5077083;28;20207;-73
2023/12/09 01:43:52;;;;;;;10.43;3.17;;;43.50;2.30;;;;;;5076818;28;20279;-73
2023/12/09 01:46:21;;;;;;;5.70;2.92;;;43.60;1.70;;;;;;5076895;28;20262;-73
2023/12/09 01:48:49;;;;;;;6.15;3.08;;;43.70;3.30;;;;;;5076822;28;20176;-72
2023/12/09 01:51:18;;;;;;;3.90;3.00;;;43.70;3.70;;;;;;5076476;28;20291;-72
2023/12/09 01:53:45;;;;;;;5.72;3.33;;;43.70;1.00;;;;;;5076216;28;20634;-72
2023/12/09 01:56:17;;;;;;;9.52;3.00;;;43.60;2.10;;;;;;5076588;28;20652;-72
2023/12/09 01:58:44;;;;;;;6.88;2.85;;;44.30;4.40;;;;;;5076859;28;20175;-72
2023/12/09 02:01:14;;;;;;;6.45;3.15;;;44.30;1.80;;;;;;5075849;28;20506;-72
2023/12/09 02:03:42;;;;;;;6.25;3.20;;;44.40;1.00;;;;;;5076721;28;20168;-72
2023/12/09 02:06:10;;;;;;;5.45;3.30;;;44.30;1.00;;;;;;5076687;28;20168;-73
2023/12/09 02:08:38;;;;;;;4.38;2.90;;;44.30;1.00;;;;;;5075094;28;20280;-72
2023/12/09 02:11:24;;;;;;;6.13;3.20;;;44.40;1.00;;;;;;5076698;28;20179;-72
2023/12/09 02:14:17;;;;;;;4.43;3.15;;;44.10;1.00;;;;;;5076275;28;20199;-71
2023/12/09 02:17:01;;;;;;;5.78;2.97;;;44.30;1.00;;;;;;5075970;28;20172;-72
2023/12/09 02:19:30;;;;;;;5.45;3.08;;;44.60;1.00;;;;;;5075790;28;20183;-72
2023/12/09 02:22:06;;;;;;;7.07;3.47;;;44.60;1.00;;;;;;5075049;28;20231;-72
2023/12/09 02:24:34;;;;;;;8.48;2.45;;;44.60;1.00;;;;;;5049625;28;20905;-70
2023/12/09 02:27:08;;;;;;;4.47;3.10;;;44.60;1.00;;;;;;5065985;28;20198;-72
2023/12/09 02:29:46;;;;;;;4.45;3.03;;;44.70;1.00;;;;;;5074364;28;20215;-71
2023/12/09 02:32:20;;;;;;;4.97;3.17;;;44.90;1.00;;;;;;5074278;28;20187;-71
2023/12/09 02:34:48;;;;;;;5.72;2.88;;;43.80;1.00;;;;;;5073720;28;20653;-71
2023/12/09 02:37:17;;;;;;;3.08;2.72;;;43.50;1.00;;;;;;5074427;28;20223;-71
2023/12/09 02:39:45;;;;;;;5.75;3.13;;;43.90;1.00;;;;;;5073018;28;20837;-72
2023/12/09 02:42:14;;;;;;;3.10;2.80;;;44.40;1.00;;;;;;5073912;28;20265;-72
2023/12/09 02:44:43;;;;;;;5.55;3.30;;;44.30;1.00;;;;;;5072876;28;20182;-72
2023/12/09 02:47:16;;;;;;;5.97;2.92;;;44.70;1.00;;;;;;5073980;28;20199;-71
2023/12/09 02:49:44;;;;;;;4.28;2.92;;;43.80;1.00;;;;;;5073386;28;20270;-71
2023/12/09 02:52:12;;;;;;;5.78;3.13;;;43.10;1.00;;;;;;5073796;28;20195;-71
2023/12/09 02:54:39;;;;;;;6.32;3.20;;;43.70;1.00;;;;;;5073683;28;20828;-70
2023/12/09 02:57:07;;;;;;;4.10;2.92;;;44.10;1.00;;;;;;5073423;28;20203;-71
2023/12/09 02:59:34;;;;;;;3.55;2.90;;;43.60;1.00;;;;;;5073752;28;20171;-70
2023/12/09 03:02:01;;;;;;;4.32;2.90;;;43.20;1.00;;;;;;5073360;28;20211;-70
2023/12/09 03:04:29;;;;;;;5.95;3.08;;;42.70;1.00;;;;;;5073377;28;20584;-71
2023/12/09 03:06:59;;;;;;;4.95;3.13;;;42.70;1.00;;;;;;5073284;28;20226;-72
2023/12/09 03:09:27;;;;;;;8.10;2.80;;;43.30;1.00;;;;;;5073145;28;20172;-71
2023/12/09 03:11:54;;;;;;;4.80;2.45;;;43.90;1.00;;;;;;5074546;28;20727;-72
2023/12/09 03:14:22;;;;;;;4.88;3.10;;;43.60;1.00;;;;;;5075015;28;20626;-72
2023/12/09 03:16:49;;;;;;;3.42;2.58;;;43.10;1.00;;;;;;5073993;28;20188;-72
2023/12/09 03:19:17;;;;;;;3.35;2.95;;;42.70;1.00;;;;;;5074963;28;20241;-72
2023/12/09 03:21:45;;;;;;;6.13;2.80;;;42.60;1.00;;;;;;5075206;28;20207;-72
2023/12/09 03:24:12;;;;;;;3.83;2.53;;;43.20;1.00;;;;;;5075383;28;20381;-73
2023/12/09 03:26:39;;;;;;;4.88;3.00;;;43.40;1.00;;;;;;5073738;28;20187;-72
2023/12/09 03:29:07;;;;;;;5.93;2.70;;;42.90;1.00;;;;;;5074423;28;20290;-70
2023/12/09 03:31:34;;;;;;;8.48;2.65;;;42.60;1.00;;;;;;5075066;28;20187;-71
2023/12/09 03:34:01;;;;;;;7.20;3.08;;;42.40;1.00;;;;;;5074715;28;20209;-72
2023/12/09 03:36:29;;;;;;;6.07;3.00;;;42.10;1.00;;;;;;5074938;28;20629;-72
2023/12/09 03:38:56;;;;;;;5.13;2.90;;;41.90;1.00;;;;;;5074683;28;20178;-73
2023/12/09 03:41:24;;;;;;;5.30;2.40;;;41.80;1.00;;;;;;5074466;28;20211;-71
2023/12/09 03:43:51;;;;;;;4.80;2.85;;;41.80;1.00;;;;;;5074361;28;20199;-72
2023/12/09 03:46:18;;;;;;;3.88;3.10;;;41.70;1.00;;;;;;5073796;28;20698;-71
2023/12/09 03:48:46;;;;;;;6.43;2.72;;;41.60;1.00;;;;;;5074405;28;20229;-71
2023/12/09 03:51:13;;;;;;;7.78;3.00;;;41.70;1.00;;;;;;5073233;28;20191;-71
2023/12/09 03:53:44;;;;;;;5.70;2.65;;;41.70;1.00;;;;;;5074056;28;20222;-70
2023/12/09 03:56:12;;;;;;;3.38;3.08;;;42.10;1.00;;;;;;5073937;28;20565;-70
2023/12/09 03:58:39;;;;;;;6.28;2.33;;;42.10;1.00;;;;;;5073960;28;20176;-71
2023/12/09 04:01:06;;;;;;;3.33;2.70;;;41.90;1.00;;;;;;5073696;28;20668;-72
2023/12/09 04:03:34;;;;;;;2.92;2.22;;;42.00;1.00;;;;;;5072568;28;20172;-69
2023/12/09 04:06:03;;;;;;;5.00;2.50;;;42.30;1.00;;;;;;5051377;28;20191;-71
2023/12/09 04:08:30;;;;;;;5.05;2.90;;;42.10;1.00;;;;;;5072593;28;20175;-70
2023/12/09 04:10:58;;;;;;;4.80;2.70;;;41.90;1.00;;;;;;5071185;28;20521;-70
2023/12/09 04:13:27;;;;;;;6.97;2.50;;;41.80;1.00;;;;;;5070280;28;20179;-71
2023/12/09 04:15:54;;;;;;;4.07;2.63;;;41.60;1.00;;;;;;5072134;28;20195;-71
2023/12/09 04:18:21;;;;;;;6.82;2.45;;;41.50;1.00;;;;;;5071460;28;20592;-72
2023/12/09 04:20:49;;;;;;;2.83;2.60;;;42.00;1.00;;;;;;5071619;28;20211;-70
2023/12/09 04:23:16;;;;;;;5.13;2.72;;;42.90;1.00;;;;;;5072152;28;20215;-71
2023/12/09 04:25:44;;;;;;;3.20;2.00;;;43.60;1.00;;;;;;5072122;28;20603;-70
2023/12/09 04:28:15;;;;;;;3.47;2.40;;;44.10;1.00;;;;;;5071344;28;20275;-71
2023/12/09 04:30:42;;;;;;;6.05;2.30;;;43.90;1.00;;;;;;5071795;28;20607;-71
2023/12/09 04:33:09;;;;;;;4.75;1.98;;;44.00;1.00;;;;;;5071938;28;20182;-70
2023/12/09 04:35:40;;;;;;;5.78;2.05;;;43.70;1.00;;;;;;5071544;28;20208;-71
2023/12/09 04:38:07;;;;;;;4.32;2.50;;;43.40;1.00;;;;;;5071875;28;20585;-71
2023/12/09 04:40:34;;;;;;;7.90;2.53;;;43.20;1.00;;;;;;5071658;28;20621;-70
2023/12/09 04:43:02;;;;;;;7.05;2.58;;;43.10;1.00;;;;;;5071293;28;20191;-71
2023/12/09 04:45:29;;;;;;;4.85;2.40;;;43.00;1.00;;;;;;5071748;28;20168;-71
2023/12/09 04:47:56;;;;;;;3.95;2.30;;;42.70;1.00;;;;;;5071682;28;20637;-71
2023/12/09 04:50:24;;;;;;;5.53;2.45;;;42.40;1.00;;;;;;5071254;28;20176;-71
2023/12/09 04:52:51;;;;;;;3.60;2.15;;;42.20;1.00;;;;;;5070290;28;20184;-70
2023/12/09 04:55:18;;;;;;;3.58;2.15;;;42.20;1.00;;;;;;5071854;28;20180;-70
2023/12/09 04:57:46;;;;;;;6.97;2.65;;;43.00;1.00;;;;;;5071074;28;20551;-70
2023/12/09 05:00:14;;;;;;;3.95;2.22;;;43.60;1.00;;;;;;5071822;28;20180;-71
2023/12/09 05:02:41;;;;;;;3.78;2.28;;;44.10;1.00;;;;;;5072386;28;20568;-70
2023/12/09 05:05:09;;;;;;;6.40;2.65;;;44.40;1.00;;;;;;5072565;28;20605;-71
2023/12/09 05:07:36;;;;;;;3.22;2.38;;;44.80;1.00;;;;;;5072991;28;20223;-71
2023/12/09 05:10:04;;;;;;;2.85;2.28;;;44.90;1.00;;;;;;5073279;28;20518;-71
2023/12/09 05:12:31;;;;;;;4.57;2.50;;;43.90;1.00;;;;;;5072899;28;20190;-71
2023/12/09 05:14:59;;;;;;;3.63;2.80;;;43.50;1.00;;;;;;5071734;28;20176;-71
2023/12/09 05:17:26;;;;;;;2.88;2.38;;;43.00;1.00;;;;;;5049242;28;20593;-71
2023/12/09 05:19:54;;;;;;;5.28;2.35;;;42.80;1.00;;;;;;5071267;28;20184;-72
2023/12/09 05:22:21;;;;;;;7.00;2.40;;;42.70;1.00;;;;;;5071203;28;20204;-71
2023/12/09 05:24:49;;;;;;;4.72;2.50;;;42.50;1.00;;;;;;5070920;28;20242;-72
2023/12/09 05:27:16;;;;;;;2.63;2.10;;;42.40;1.00;;;;;;5071478;28;21069;-71
2023/12/09 05:29:44;;;;;;;4.18;2.17;;;42.20;1.00;;;;;;5071194;28;20215;-71
2023/12/09 05:32:11;;;;;;;7.32;2.28;;;42.40;1.00;;;;;;5069012;28;20236;-71
2023/12/09 05:34:39;;;;;;;4.38;2.15;;;42.90;1.00;;;;;;5071395;28;20277;-72
2023/12/09 05:37:06;;;;;;;4.43;2.22;;;43.30;1.00;;;;;;5071127;28;20333;-70
2023/12/09 05:39:33;;;;;;;6.05;2.50;;;43.70;1.00;;;;;;5070820;28;20172;-71
2023/12/09 05:42:01;;;;;;;3.65;2.53;;;43.90;1.00;;;;;;5069417;28;20589;-70
2023/12/09 05:44:28;;;;;;;3.13;2.33;;;44.00;1.00;;;;;;5071352;28;20542;-71
2023/12/09 05:46:55;;;;;;;6.60;2.40;;;43.60;1.00;;;;;;5070755;28;20178;-71
2023/12/09 05:49:23;;;;;;;6.78;2.80;;;43.40;1.00;;;;;;5071176;28;20180;-71
2023/12/09 05:51:50;;;;;;;2.47;2.28;;;43.90;1.00;;;;;;5070978;28;20180;-70
2023/12/09 05:54:18;;;;;;;6.00;2.30;;;43.60;1.00;;;;;;5070777;28;20179;-72
2023/12/09 05:56:49;;;;;;;5.15;2.47;;;43.00;1.00;;;;;;5069614;28;20233;-70
2023/12/09 05:59:16;;;;;;;2.50;2.17;;;42.70;1.00;;;;;;5070814;28;20175;-70
2023/12/09 06:01:44;;;;;;;5.80;2.10;;;42.50;1.00;;;;;;5070687;28;20369;-71
2023/12/09 06:04:11;;;;;;;3.83;1.90;;;42.40;1.00;;;;;;5070989;28;20253;-71
2023/12/09 06:06:38;;;;;;;8.20;3.50;;;42.40;1.00;;;;;;5071130;28;20178;-71
2023/12/09 06:09:06;;;;;;;4.88;3.75;;;42.20;1.00;;;;;;5071611;28;20184;-71
2023/12/09 06:11:33;;;;;;;9.13;3.78;;;41.70;1.00;;;;;;5074647;28;20188;-71
2023/12/09 06:14:01;;;;;;;8.10;4.00;;;41.30;2.20;;;;;;5074304;28;20656;-71
2023/12/09 06:16:28;;;;;;;7.43;3.15;;;41.00;2.50;;;;;;5074213;28;20175;-70
2023/12/09 06:18:55;;;;;;;3.70;3.00;;;40.80;1.00;;;;;;5074093;28;20183;-72
2023/12/09 06:21:24;;;;;;;6.60;3.72;;;40.60;1.00;;;;;;5074550;28;20734;-70
2023/12/09 06:23:52;;;;;;;5.97;3.33;;;40.40;1.00;;;;;;5073919;28;20843;-71
2023/12/09 06:26:20;;;;;;;5.07;3.42;;;40.30;1.00;;;;;;5074608;28;20188;-71
2023/12/09 06:28:47;;;;;;;5.78;3.92;;;40.10;1.00;;;;;;5074291;28;20219;-71
2023/12/09 06:31:15;;;;;;;4.85;3.17;;;39.80;1.00;;;;;;5074142;28;20195;-71
2023/12/09 06:33:42;;;;;;;4.50;3.28;;;40.00;1.00;;;;;;5074083;28;20184;-70
2023/12/09 06:36:10;;;;;;;3.67;3.05;;;40.20;1.00;;;;;;5073105;28;20195;-71
2023/12/09 06:38:40;;;;;;;3.95;3.20;;;40.40;1.00;;;;;;5073367;28;20188;-71
2023/12/09 06:41:08;;;;;;;5.45;3.50;;;40.60;1.00;;;;;;5073468;28;20227;-71
2023/12/09 06:43:36;;;;;;;4.95;3.30;;;40.50;1.00;;;;;;5073969;28;20187;-70
2023/12/09 06:46:03;;;;;;;7.25;3.05;;;40.20;1.00;;;;;;5073562;28;20179;-71
2023/12/09 06:48:30;;;;;;;3.85;3.00;;;40.00;1.00;;;;;;5073811;28;20680;-71
2023/12/09 06:50:58;;;;;;;4.22;2.70;;;39.80;1.00;;;;;;5072246;28;20187;-71
2023/12/09 06:53:25;;;;;;;4.93;2.95;;;39.70;1.00;;;;;;5072706;28;20245;-70
2023/12/09 06:55:53;;;;;;;3.97;2.78;;;39.60;1.00;;;;;;5073750;28;20192;-69
2023/12/09 06:58:20;;;;;;;3.30;2.95;;;39.50;1.00;;;;;;5073746;28;20668;-70
2023/12/09 07:00:47;;;;;;;4.82;3.30;;;39.40;1.00;;;;;;5073111;28;20210;-70
2023/12/09 07:03:15;;;;;;;3.83;3.00;;;39.30;1.00;;;;;;5074037;28;20632;-70
2023/12/09 07:05:42;;;;;;;3.67;2.55;;;39.20;1.00;;;;;;5072357;28;20180;-70
2023/12/09 07:08:12;;;;;;;6.82;3.05;;;39.10;1.00;;;;;;5060114;28;20188;-71
2023/12/09 07:10:43;;;;;;;3.97;2.88;;;39.00;1.00;;;;;;5075157;28;20200;-70
2023/12/09 07:13:10;;;;;;;5.55;2.70;;;39.00;1.00;;;;;;5074461;28;20183;-70
2023/12/09 07:15:38;;;;;;;4.65;2.67;;;38.80;1.10;;;;;;5074985;28;20263;-70
2023/12/09 07:18:05;;;;;;;4.75;2.70;;;38.70;1.00;;;;;;5074823;28;20180;-70
2023/12/09 07:20:33;;;;;;;5.72;3.47;;;38.60;1.90;;;;;;5074153;28;20168;-71
2023/12/09 07:23:00;;;;;;;6.60;3.42;;;38.50;2.00;;;;;;5075459;28;20190;-71
2023/12/09 07:25:28;;;;;;;5.10;3.03;;;38.40;2.90;;;;;;5074788;28;20230;-70
2023/12/09 07:27:55;;;;;;;4.43;3.08;;;38.30;3.40;;;;;;5074881;28;20179;-71
2023/12/09 07:30:23;;;;;;;3.63;2.90;;;38.20;3.20;;;;;;5075006;28;20247;-71
2023/12/09 07:32:50;;;;;;;4.55;3.13;;;38.30;3.10;;;;;;5074768;28;20578;-71
2023/12/09 07:35:18;;;;;;;6.82;3.10;;;38.60;2.50;;;;;;5074830;28;20309;-70
2023/12/09 07:37:45;;;;;;;5.43;3.30;;;38.80;3.50;;;;;;5074948;28;20689;-70
2023/12/09 07:40:13;;;;;;;7.10;3.17;;;38.90;2.90;;;;;;5074665;28;20270;-70
2023/12/09 07:42:40;;;;;;;4.07;3.38;;;38.90;2.50;;;;;;5074691;28;20212;-70
2023/12/09 07:45:08;;;;;;;4.30;3.42;;;38.80;2.40;;;;;;5074508;28;20191;-69
2023/12/09 07:47:36;;;;;;;4.32;3.55;;;38.60;2.60;;;;;;5073127;28;20645;-70
2023/12/09 07:50:03;;;;;;;5.95;3.80;;;38.40;2.40;;;;;;5074164;28;20188;-70
2023/12/09 07:52:30;;;;;;;7.28;4.10;;;38.30;3.20;;;;;;5074704;28;20168;-71
2023/12/09 07:54:58;;;;;;;3.88;3.58;;;38.30;3.10;;;;;;5074140;28;20184;-70
2023/12/09 07:57:25;;;;;;;4.55;3.90;;;38.20;3.80;;;;;;5073952;28;20548;-71
2023/12/09 07:59:52;;;;;;;7.15;3.92;;;38.10;4.00;;;;;;5074550;28;20176;-71
2023/12/09 08:02:20;;;;;;;10.43;4.15;;;38.00;4.60;;;;;;5074186;28;20203;-71
2023/12/09 08:04:47;;;;;;;5.75;4.32;;;38.00;5.30;;;;;;5074093;28;20263;-70
2023/12/09 08:07:15;;;;;;;5.00;3.75;;;37.90;5.80;;;;;;5073919;28;20601;-71
2023/12/09 08:09:42;;;;;;;6.45;3.75;;;37.80;7.00;;;;;;5052288;28;20207;-69
2023/12/09 08:12:10;;;;;;;6.55;3.83;;;37.70;7.10;;;;;;5072167;28;20187;-70
2023/12/09 08:14:37;;;;;;;7.63;3.70;;;37.40;7.90;;;;;;5071518;28;20180;-70
2023/12/09 08:17:05;;;;;;;5.20;3.83;;;37.30;8.80;;;;;;5071568;28;20278;-70
2023/12/09 08:19:32;;;;;;;6.28;4.07;;;37.10;10.00;;;;;;5071967;28;20600;-70
2023/12/09 08:22:00;;;;;;;8.25;3.67;;;36.80;11.00;;;;;;5071783;28;20230;-69
2023/12/09 08:24:28;;;;;;;6.30;3.85;;;36.60;14.00;;;;;;5071837;28;20165;-70
2023/12/09 08:26:56;;;;;;;10.10;4.63;;;36.40;15.20;;;;;;5072018;28;20186;-70
2023/12/09 08:29:23;;;;;;;6.55;4.00;;;36.20;15.80;;;;;;5072034;28;20228;-71
2023/12/09 08:31:50;;;;;;;8.30;4.40;;;36.00;17.60;;;;;;5071189;28;20175;-69
2023/12/09 08:34:18;;;;;;;9.77;3.67;;;35.70;20.10;;;;;;5072105;28;20195;-72
2023/12/09 08:36:45;;;;;;;11.45;4.18;;;35.30;24.70;;;;;;5071825;28;20671;-70
2023/12/09 08:39:14;;;;;;;18.45;4.90;;;34.80;37.60;;;;;;5071523;28;20176;-69
2023/12/09 08:41:42;;;;;;;12.05;4.80;;;34.10;61.80;;;;;;5071772;28;20246;-70
2023/12/09 08:44:09;;;;;;;19.67;5.18;;;33.40;94.30;;;;;;5070763;28;20203;-70
2023/12/09 08:46:36;;;;;;;18.63;5.05;;;32.80;99.90;;;;;;5071334;28;20219;-70
2023/12/09 08:49:04;;;;;;;16.88;4.90;;;32.50;99.90;;;;;;5071989;28;20215;-70
2023/12/09 08:51:31;;;;;;;20.42;5.68;;;32.00;99.90;;;;;;5071722;28;20620;-70
2023/12/09 08:53:59;;;;;;;28.83;6.10;;;31.60;99.90;;;;;;5071456;28;20259;-69
2023/12/09 08:59:48;;;;;;;28.80;8.07;;;30.40;99.90;;;;;;5071140;28;20651;-70
2023/12/09 09:02:16;;;;;;;27.40;6.87;;;30.10;99.90;;;;;;5071106;28;20311;-70
2023/12/09 09:04:43;;;;;;;24.50;6.00;;;29.50;99.90;;;;;;5070325;28;20250;-70
2023/12/09 09:07:10;;;;;;;30.10;6.50;;;29.10;99.90;;;;;;5071236;28;20558;-71
2023/12/09 09:09:41;;;;;;;25.10;7.23;;;28.90;99.90;;;;;;5070032;28;20266;-70
2023/12/09 09:12:08;;;;;;;23.13;7.03;;;28.60;99.90;;;;;;5071755;28;20210;-70
2023/12/09 09:14:36;;;;;;;27.80;7.50;;;28.50;99.90;;;;;;5071519;28;20188;-70
2023/12/09 09:17:04;;;;;;;30.10;7.50;;;28.40;99.90;;;;;;5071018;28;20184;-72
2023/12/09 09:19:32;;;;;;;28.40;7.30;;;28.20;99.90;;;;;;5071662;28;20537;-70
2023/12/09 09:21:59;;;;;;;25.60;7.23;;;28.00;99.90;;;;;;5071725;28;20211;-69
2023/12/09 09:24:29;;;;;;;20.77;6.20;;;28.00;99.90;;;;;;5071385;28;20218;-72
2023/12/09 09:26:57;;;;;;;26.33;6.77;;;27.90;99.90;;;;;;5071001;28;20175;-71
2023/12/09 09:29:24;;;;;;;26.13;7.40;;;27.70;99.90;;;;;;5071403;28;20302;-71
2023/12/09 09:31:52;;;;;;;24.93;7.37;;;27.70;99.90;;;;;;5071136;28;20187;-70
2023/12/09 09:34:19;;;;;;;29.60;6.87;;;27.40;99.90;;;;;;5071427;28;20254;-71
2023/12/09 09:36:46;;;;;;;29.63;7.23;;;27.30;99.90;;;;;;5071275;28;20214;-72
2023/12/09 09:39:14;;;;;;;26.63;7.20;;;27.30;99.90;;;;;;5070896;28;20510;-71
2023/12/09 09:42:18;;;;;;;25.43;7.33;;;27.30;99.90;;;;;;5071355;28;20246;-71
2023/12/09 09:45:14;;;;;;;33.87;7.57;;;27.20;99.90;;;;;;5075070;28;20172;-71
2023/12/09 09:47:42;;;;;;;27.27;7.63;;;27.20;99.90;;;;;;5075184;28;20176;-70
2023/12/09 09:50:10;;;;;;;26.60;6.83;;;27.10;99.90;;;;;;5074039;28;20593;-71
2023/12/09 09:52:40;;;;;;;32.53;7.60;;;27.10;99.90;;;;;;5074698;28;20283;-71
2023/12/09 09:55:09;;;;;;;30.13;7.17;;;27.10;99.90;;;;;;5075542;28;20645;-69
2023/12/09 09:57:37;;;;;;;24.57;6.67;;;27.10;99.90;;;;;;5076698;28;20172;-70
2023/12/09 10:00:13;;;;;;;27.33;7.30;;;27.00;99.90;;;;;;5076627;28;20187;-70
2023/12/09 10:02:48;;;;;;;26.67;6.77;;;27.00;99.90;;;;;;5076503;28;20211;-70
2023/12/09 10:05:17;;;;;;;27.03;6.37;;;27.00;99.90;;;;;;5076611;28;20184;-70
2023/12/09 10:07:45;;;;;;;29.10;6.87;;;26.90;99.90;;;;;;5076652;28;20176;-70
2023/12/09 10:10:16;;;;;;;24.93;6.53;;;26.90;99.90;;;;;;5076796;28;20271;-70
2023/12/09 10:12:44;;;;;;;29.13;6.80;;;26.80;99.90;;;;;;5076570;28;20187;-69
2023/12/09 10:15:12;;;;;;;19.77;6.50;;;26.60;99.90;;;;;;5076502;28;20645;-69
2023/12/09 10:17:39;;;;;;;28.93;8.47;;;26.60;99.90;;;;;;5076518;28;20183;-70
2023/12/09 10:20:08;;;;;;;53.90;7.63;;;26.60;99.90;;;;;;5076161;28;20180;-70
2023/12/09 10:22:36;;;;;;;30.47;7.17;;;26.50;99.90;;;;;;5076162;28;20219;-71
2023/12/09 10:25:04;;;;;;;23.23;6.93;;;26.50;99.90;;;;;;5074966;28;20661;-70
2023/12/09 10:27:32;;;;;;;21.43;6.70;;;26.40;99.90;;;;;;5074997;28;20641;-70
2023/12/09 10:30:01;;;;;;;23.10;6.30;;;26.40;99.90;;;;;;5075955;28;20754;-70
2023/12/09 10:32:28;;;;;;;27.23;7.37;;;26.40;99.90;;;;;;5076225;28;20172;-67
2023/12/09 10:34:56;;;;;;;22.47;6.80;;;26.40;99.90;;;;;;5076053;28;20184;-68
2023/12/09 10:37:23;;;;;;;27.53;7.30;;;26.30;99.90;;;;;;5075929;28;20187;-69
2023/12/09 10:39:51;;;;;;;27.17;7.87;;;26.40;99.90;;;;;;5075753;28;20260;-69
2023/12/09 10:42:19;;;;;;;27.10;7.00;;;26.20;99.90;;;;;;5075974;28;20369;-69
2023/12/09 10:44:47;;;;;;;23.57;6.47;;;26.10;99.90;;;;;;5075912;28;20645;-70
2023/12/09 10:47:14;;;;;;;23.87;7.13;;;26.10;99.90;;;;;;5075947;28;20191;-70
2023/12/09 10:49:42;;;;;;;27.90;8.13;;;26.10;99.90;;;;;;5075842;28;20306;-70
2023/12/09 10:52:09;;;;;;;25.53;7.03;;;26.00;99.90;;;;;;5075816;28;20187;-70
2023/12/09 10:54:37;;;;;;;25.23;7.53;;;26.10;99.90;;;;;;5076056;28;20266;-71
2023/12/09 10:57:04;;;;;;;26.50;7.93;;;26.00;99.90;;;;;;5074427;28;20176;-71
2023/12/09 10:59:34;;;;;;;24.80;7.37;;;26.00;99.90;;;;;;5075624;28;20206;-69
2023/12/09 11:02:03;;;;;;;31.47;7.37;;;26.00;99.90;;;;;;5075589;28;20265;-70
2023/12/09 11:04:31;;;;;;;22.67;6.90;;;26.10;99.90;;;;;;5075725;28;20251;-69
2023/12/09 11:07:03;;;;;;;26.90;7.37;;;26.00;99.90;;;;;;5074459;28;20186;-70
2023/12/09 11:09:32;;;;;;;18.67;6.07;;;26.10;99.90;;;;;;5074374;28;20545;-70
2023/12/09 11:11:59;;;;;;;21.73;6.37;;;25.90;99.90;;;;;;5075429;28;20176;-70
2023/12/09 11:14:31;;;;;;;20.07;6.00;;;25.80;99.90;;;;;;5075378;28;20176;-69
2023/12/09 11:17:00;;;;;;;18.17;6.03;;;25.80;99.90;;;;;;5075281;28;20187;-70
2023/12/09 11:19:28;;;;;;;16.50;5.20;;;25.80;99.90;;;;;;5075137;28;20523;-70
2023/12/09 11:21:56;;;;;;;20.33;6.13;;;25.70;99.90;;;;;;5075390;28;20258;-70
2023/12/09 11:24:30;;;;;;;16.13;6.07;;;25.70;99.90;;;;;;5075405;28;20176;-70
2023/12/09 11:26:57;;;;;;;15.03;5.63;;;25.60;99.90;;;;;;5075417;28;20176;-70
2023/12/09 11:29:25;;;;;;;18.60;5.60;;;25.70;99.90;;;;;;5074753;28;20262;-70
2023/12/09 11:31:53;;;;;;;17.47;5.67;;;25.80;99.90;;;;;;5075061;28;20528;-69
2023/12/09 11:34:21;;;;;;;15.43;5.23;;;25.70;99.90;;;;;;5075156;28;20735;-69
2023/12/09 11:36:52;;;;;;;14.00;5.37;;;25.80;99.90;;;;;;5075252;28;20629;-69
2023/12/09 11:39:21;;;;;;;14.73;4.63;;;25.80;99.90;;;;;;5074686;28;20176;-69
2023/12/09 11:41:49;;;;;;;12.10;4.00;;;25.70;99.90;;;;;;5074740;28;20208;-69
2023/12/09 11:44:17;;;;;;;14.63;4.97;;;25.70;99.90;;;;;;5074935;28;20176;-70
2023/12/09 11:46:46;;;;;;;10.67;4.17;;;25.50;99.90;;;;;;5074750;28;20176;-70
2023/12/09 11:49:14;;;;;;;12.67;4.67;;;25.60;99.90;;;;;;5073349;28;20194;-70
2023/12/09 11:51:41;;;;;;;14.50;4.93;;;25.60;99.90;;;;;;5074571;28;20183;-69
2023/12/09 11:54:11;;;;;;;11.40;3.70;;;25.70;99.90;;;;;;5074783;28;20179;-69
2023/12/09 11:56:40;;;;;;;15.33;4.43;;;25.60;99.90;;;;;;5074734;28;20530;-69
2023/12/09 11:59:08;;;;;;;12.07;4.27;;;25.60;99.90;;;;;;5074490;28;20180;-70
2023/12/09 12:01:38;;;;;;;10.77;3.43;;;25.60;99.90;;;;;;5074664;28;20298;-69
2023/12/09 12:04:05;;;;;;;10.23;3.60;;;25.60;99.90;;;;;;5074611;28;20212;-68
2023/12/09 12:06:33;;;;;;;8.03;3.33;;;25.60;99.90;;;;;;5073547;28;20184;-69
2023/12/09 12:09:03;;;;;;;9.80;3.60;;;25.50;99.90;;;;;;5074246;28;20234;-69
2023/12/09 12:11:32;;;;;;;11.80;3.80;;;25.40;99.90;;;;;;5074351;28;20187;-69
2023/12/09 12:14:00;;;;;;;11.77;3.47;;;25.40;99.90;;;;;;5074280;28;20176;-69
2023/12/09 12:16:27;;;;;;;11.47;3.30;;;25.50;99.90;;;;;;5074278;28;20531;-69
2023/12/09 12:18:58;;;;;;;9.27;2.73;;;25.30;99.90;;;;;;5073773;28;20184;-69
2023/12/09 12:21:29;;;;;;;10.83;3.13;;;25.30;99.90;;;;;;5074123;28;20761;-69
2023/12/09 12:23:56;;;;;;;11.60;3.27;;;25.20;99.90;;;;;;5074071;28;20206;-69
2023/12/09 12:26:24;;;;;;;8.57;3.13;;;25.20;99.90;;;;;;5074008;28;20176;-69
2023/12/09 12:28:51;;;;;;;8.20;3.10;;;25.20;99.90;;;;;;5073792;28;20234;-69
2023/12/09 12:31:19;;;;;;;11.03;3.67;;;25.20;99.90;;;;;;5073966;28;20249;-69
2023/12/09 12:33:46;;;;;;;12.00;3.70;;;25.10;99.90;;;;;;5073717;28;20179;-69
2023/12/09 12:36:13;;;;;;;10.30;3.83;;;25.10;99.90;;;;;;5073792;28;20255;-69
2023/12/09 12:38:41;;;;;;;12.10;3.37;;;25.00;99.90;;;;;;5073589;28;20263;-69
2023/12/09 12:41:09;;;;;;;13.40;3.50;;;24.90;99.90;;;;;;5073719;28;20628;-69
2023/12/09 12:43:36;;;;;;;11.53;4.10;;;24.80;99.90;;;;;;5073795;28;20186;-69
2023/12/09 12:46:04;;;;;;;7.67;3.17;;;24.80;99.90;;;;;;5073884;28;20686;-69
2023/12/09 12:48:31;;;;;;;7.97;3.63;;;24.80;99.90;;;;;;5073691;28;20237;-69
2023/12/09 12:50:59;;;;;;;12.40;3.40;;;24.80;99.90;;;;;;5073598;28;20541;-70
2023/12/09 12:53:27;;;;;;;9.90;2.90;;;24.80;99.90;;;;;;5073560;28;20176;-69
2023/12/09 12:55:55;;;;;;;6.77;2.80;;;24.80;99.90;;;;;;5073630;28;20192;-68
2023/12/09 12:58:22;;;;;;;11.73;3.00;;;24.70;99.90;;;;;;5073131;28;20211;-69